createdAt,value
2023-09-06T00:00:34.338Z,18.93
2023-09-06T00:03:05.205Z,18.86
2023-09-06T00:05:35.520Z,18.88
2023-09-06T00:08:07.935Z,18.83
2023-09-06T00:10:42.009Z,18.81
2023-09-06T00:13:14.129Z,18.78
2023-09-06T00:15:44.931Z,18.75
2023-09-06T00:18:15.266Z,18.74
2023-09-06T00:20:46.673Z,18.71
2023-09-06T00:23:18.855Z,18.68
2023-09-06T00:25:51.704Z,18.62
2023-09-06T00:28:25.432Z,18.58
2023-09-06T00:30:56.769Z,18.55
2023-09-06T00:33:32.014Z,18.54
2023-09-06T00:36:02.515Z,18.41
2023-09-06T00:38:33.752Z,18.47
2023-09-06T00:41:06.625Z,18.42
2023-09-06T00:43:36.952Z,18.39
2023-09-06T00:46:09.796Z,18.35
2023-09-06T00:48:40.648Z,18.33
2023-09-06T00:51:11.575Z,18.30
2023-09-06T00:53:44.118Z,18.28
2023-09-06T00:56:18.665Z,18.24
2023-09-06T00:58:50.306Z,18.22
2023-09-06T01:01:20.676Z,18.15
2023-09-06T01:03:51.345Z,18.15
2023-09-06T01:06:25.783Z,18.14
2023-09-06T01:09:00.271Z,18.08
2023-09-06T01:11:38.588Z,18.08
2023-09-06T01:14:09.633Z,18.03
2023-09-06T01:16:44.610Z,17.99
2023-09-06T01:19:18.133Z,17.97
2023-09-06T01:21:57.026Z,17.97
2023-09-06T01:24:31.096Z,17.94
2023-09-06T01:27:01.586Z,17.92
2023-09-06T01:29:33.488Z,17.88
2023-09-06T01:32:05.180Z,17.87
2023-09-06T01:34:35.574Z,17.86
2023-09-06T01:37:06.052Z,17.83
2023-09-06T01:39:39.122Z,17.81
2023-09-06T01:42:09.509Z,17.82
2023-09-06T01:44:39.897Z,17.80
2023-09-06T01:47:10.264Z,17.78
2023-09-06T01:49:40.613Z,17.74
2023-09-06T01:52:12.313Z,17.69
2023-09-06T01:54:46.769Z,17.72
2023-09-06T01:57:17.405Z,17.68
2023-09-06T01:59:52.111Z,17.64
2023-09-06T02:02:22.408Z,17.61
2023-09-06T02:04:52.711Z,17.60
2023-09-06T02:07:23.040Z,17.59
2023-09-06T02:09:57.201Z,17.57
2023-09-06T02:12:27.605Z,17.53
2023-09-06T02:14:57.867Z,17.52
2023-09-06T02:17:28.752Z,17.49
2023-09-06T02:19:59.179Z,17.47
2023-09-06T02:22:29.486Z,17.43
2023-09-06T02:25:03.208Z,17.42
2023-09-06T02:27:34.304Z,17.40
2023-09-06T02:30:08.084Z,17.37
2023-09-06T02:32:39.134Z,17.34
2023-09-06T02:35:11.419Z,17.32
2023-09-06T02:37:41.698Z,17.29
2023-09-06T02:40:18.794Z,17.26
2023-09-06T02:42:52.836Z,17.27
2023-09-06T02:45:24.086Z,17.23
2023-09-06T02:47:55.648Z,17.20
2023-09-06T02:50:26.603Z,17.18
2023-09-06T02:52:57.958Z,17.15
2023-09-06T02:55:31.252Z,17.13
2023-09-06T02:58:01.584Z,17.10
2023-09-06T03:00:37.450Z,17.08
2023-09-06T03:03:09.411Z,17.04
2023-09-06T03:05:43.186Z,17.03
2023-09-06T03:08:14.770Z,17.00
2023-09-06T03:10:48.621Z,16.95
2023-09-06T03:13:21.684Z,16.95
2023-09-06T03:15:53.512Z,16.91
2023-09-06T03:18:24.119Z,16.88
2023-09-06T03:20:56.889Z,16.86
2023-09-06T03:23:28.165Z,16.83
2023-09-06T03:26:01.070Z,16.83
2023-09-06T03:28:31.717Z,16.80
2023-09-06T03:31:02.788Z,16.77
2023-09-06T03:33:33.657Z,16.74
2023-09-06T03:36:08.944Z,16.73
2023-09-06T03:38:40.592Z,16.73
2023-09-06T03:41:13.576Z,16.68
2023-09-06T03:43:44.214Z,16.67
2023-09-06T03:46:16.024Z,16.64
2023-09-06T03:48:47.162Z,16.64
2023-09-06T03:51:17.851Z,16.64
2023-09-06T03:53:49.136Z,16.61
2023-09-06T03:56:22.181Z,16.60
2023-09-06T03:58:54.656Z,16.60
2023-09-06T04:01:27.504Z,16.59
2023-09-06T04:04:01.976Z,16.56
2023-09-06T04:06:32.647Z,16.56
2023-09-06T04:09:03.574Z,16.54
2023-09-06T04:11:36.614Z,16.50
2023-09-06T04:14:07.285Z,16.51
2023-09-06T04:16:37.969Z,16.50
2023-09-06T04:19:09.992Z,16.46
2023-09-06T04:21:41.883Z,16.46
2023-09-06T04:24:12.527Z,16.45
2023-09-06T04:26:50.271Z,16.42
2023-09-06T04:29:21.152Z,16.39
2023-09-06T04:31:51.464Z,16.36
2023-09-06T04:34:22.151Z,16.34
2023-09-06T04:36:52.431Z,16.30
2023-09-06T04:39:22.701Z,16.28
2023-09-06T04:41:56.268Z,16.25
2023-09-06T04:44:26.539Z,16.22
2023-09-06T04:46:57.225Z,16.19
2023-09-06T04:49:27.575Z,16.17
2023-09-06T04:51:57.887Z,16.14
2023-09-06T04:54:28.654Z,16.11
2023-09-06T04:57:01.706Z,16.09
2023-09-06T04:59:34.832Z,16.09
2023-09-06T05:02:05.197Z,16.05
2023-09-06T05:04:36.484Z,16.03
2023-09-06T05:07:07.337Z,16.02
2023-09-06T05:09:38.465Z,16.00
2023-09-06T05:12:12.045Z,15.97
2023-09-06T05:14:42.364Z,15.97
2023-09-06T05:17:12.632Z,15.97
2023-09-06T05:19:42.877Z,15.93
2023-09-06T05:22:13.173Z,15.96
2023-09-06T05:24:43.473Z,15.97
2023-09-06T05:27:19.016Z,15.91
2023-09-06T05:29:51.137Z,15.91
2023-09-06T05:32:21.860Z,15.92
2023-09-06T05:34:52.107Z,15.94
2023-09-06T05:37:22.482Z,15.96
2023-09-06T05:39:52.804Z,15.95
2023-09-06T05:42:25.772Z,15.98
2023-09-06T05:44:57.499Z,16.02
2023-09-06T05:47:27.925Z,16.04
2023-09-06T05:49:59.380Z,16.07
2023-09-06T05:52:29.985Z,16.10
2023-09-06T05:55:00.260Z,16.12
2023-09-06T05:57:35.222Z,16.16
2023-09-06T06:00:06.055Z,16.16
2023-09-06T06:02:37.131Z,16.21
2023-09-06T06:05:08.146Z,16.25
2023-09-06T06:07:38.449Z,16.24
2023-09-06T06:10:12.159Z,16.28
2023-09-06T06:12:45.615Z,16.30
2023-09-06T06:15:17.063Z,16.36
2023-09-06T06:17:47.373Z,16.40
2023-09-06T06:20:22.908Z,16.45
2023-09-06T06:22:58.567Z,16.51
2023-09-06T06:25:29.030Z,16.56
2023-09-06T06:28:02.030Z,16.64
2023-09-06T06:30:32.390Z,16.70
2023-09-06T06:33:04.095Z,16.74
2023-09-06T06:35:35.611Z,16.76
2023-09-06T06:38:06.297Z,16.82
2023-09-06T06:40:40.008Z,16.89
2023-09-06T06:43:13.672Z,16.85
2023-09-06T06:45:50.974Z,16.92
2023-09-06T06:48:21.275Z,17.03
2023-09-06T06:50:51.901Z,17.06
2023-09-06T06:53:22.267Z,17.20
2023-09-06T06:55:56.696Z,17.20
2023-09-06T06:58:29.890Z,17.32
2023-09-06T07:01:00.292Z,17.37
2023-09-06T07:03:30.862Z,17.45
2023-09-06T07:06:01.326Z,17.54
2023-09-06T07:08:31.804Z,17.62
2023-09-06T07:11:04.874Z,17.71
2023-09-06T07:13:37.940Z,17.72
2023-09-06T07:16:08.651Z,17.82
2023-09-06T07:18:39.454Z,17.88
2023-09-06T07:21:09.813Z,17.97
2023-09-06T07:23:40.536Z,18.06
2023-09-06T07:26:12.570Z,18.14
2023-09-06T07:28:47.017Z,18.23
2023-09-06T07:31:19.472Z,18.35
2023-09-06T07:33:50.016Z,18.44
2023-09-06T07:36:20.717Z,18.49
2023-09-06T07:38:56.589Z,18.57
2023-09-06T07:41:27.429Z,18.64
2023-09-06T07:44:00.627Z,18.75
2023-09-06T07:46:32.379Z,18.92
2023-09-06T07:49:02.896Z,19.08
2023-09-06T07:51:33.529Z,19.28
2023-09-06T07:54:03.837Z,19.52
2023-09-06T07:56:34.129Z,19.73
2023-09-06T07:59:07.104Z,19.91
2023-09-06T08:01:37.591Z,20.08
2023-09-06T08:06:38.550Z,20.39
2023-09-06T08:09:09.342Z,20.53
2023-09-06T08:11:39.688Z,20.72
2023-09-06T08:14:12.586Z,20.88
2023-09-06T08:16:42.896Z,21.10
2023-09-06T08:19:13.225Z,21.30
2023-09-06T08:21:44.558Z,21.46
2023-09-06T08:24:14.925Z,21.58
2023-09-06T08:26:45.256Z,21.71
2023-09-06T08:29:18.392Z,21.86
2023-09-06T08:31:48.747Z,21.98
2023-09-06T08:34:19.184Z,22.10
2023-09-06T08:36:49.455Z,22.19
2023-09-06T08:39:19.755Z,22.24
2023-09-06T08:41:53.336Z,22.31
2023-09-06T08:44:28.668Z,22.38
2023-09-06T08:47:04.925Z,22.43
2023-09-06T08:49:36.249Z,22.49
2023-09-06T08:52:07.829Z,22.52
2023-09-06T08:54:38.771Z,22.46
2023-09-06T08:57:09.425Z,22.49
2023-09-06T08:59:43.804Z,22.51
2023-09-06T09:02:16.219Z,22.53
2023-09-06T09:04:47.209Z,22.55
2023-09-06T09:07:18.359Z,22.57
2023-09-06T09:10:05.618Z,22.65
2023-09-06T09:12:37.205Z,22.75
2023-09-06T09:17:58.507Z,22.97
2023-09-06T09:20:31.104Z,22.99
2023-09-06T09:23:05.409Z,23.03
2023-09-06T09:25:37.330Z,23.09
2023-09-06T09:28:08.377Z,23.11
2023-09-06T09:30:42.718Z,23.09
2023-09-06T09:33:13.264Z,23.12
2023-09-06T09:35:45.857Z,23.18
2023-09-06T09:38:16.226Z,23.29
2023-09-06T09:40:53.380Z,23.40
2023-09-06T09:43:24.725Z,23.52
2023-09-06T09:45:57.687Z,23.63
2023-09-06T09:48:33.836Z,23.71
2023-09-06T09:51:06.211Z,23.83
2023-09-06T09:53:37.545Z,23.91
2023-09-06T09:56:11.660Z,23.99
2023-09-06T09:58:42.550Z,24.07
2023-09-06T10:01:16.508Z,24.16
2023-09-06T10:03:48.821Z,24.23
2023-09-06T10:06:21.453Z,24.29
2023-09-06T10:08:53.889Z,24.32
2023-09-06T10:11:25.531Z,24.38
2023-09-06T10:13:57.745Z,24.47
2023-09-06T10:16:31.412Z,24.50
2023-09-06T10:19:02.582Z,24.58
2023-09-06T10:21:35.161Z,24.58
2023-09-06T10:24:05.812Z,24.58
2023-09-06T10:26:38.854Z,24.56
2023-09-06T10:29:13.337Z,24.58
2023-09-06T10:31:55.275Z,24.56
2023-09-06T10:34:25.681Z,24.56
2023-09-06T10:36:58.983Z,24.56
2023-09-06T10:39:30.430Z,24.56
2023-09-06T10:42:22.625Z,24.58
2023-09-06T10:45:15.262Z,24.63
2023-09-06T10:47:48.363Z,24.68
2023-09-06T10:50:24.573Z,24.78
2023-09-06T10:52:57.415Z,24.88
2023-09-06T10:55:29.447Z,24.94
2023-09-06T10:58:10.477Z,24.99
2023-09-06T11:00:42.504Z,25.09
2023-09-06T11:03:23.563Z,25.17
2023-09-06T11:05:59.894Z,25.27
2023-09-06T11:08:31.866Z,25.37
2023-09-06T11:11:11.413Z,25.40
2023-09-06T11:13:44.882Z,25.44
2023-09-06T11:16:17.491Z,25.47
2023-09-06T11:18:52.600Z,25.57
2023-09-06T11:21:24.532Z,25.68
2023-09-06T11:23:57.759Z,25.74
2023-09-06T11:26:28.582Z,25.75
2023-09-06T11:29:07.454Z,25.82
2023-09-06T11:31:37.834Z,25.91
2023-09-06T11:34:13.702Z,25.95
2023-09-06T11:36:45.068Z,25.97
2023-09-06T11:39:20.543Z,26.02
2023-09-06T11:41:53.124Z,26.07
2023-09-06T11:44:24.908Z,26.11
2023-09-06T11:46:56.081Z,26.20
2023-09-06T11:49:31.605Z,26.25
2023-09-06T11:52:06.400Z,26.31
2023-09-06T11:54:40.415Z,26.36
2023-09-06T11:57:12.231Z,26.37
2023-09-06T11:59:45.090Z,26.39
2023-09-06T12:02:16.384Z,26.42
2023-09-06T12:05:05.435Z,26.46
2023-09-06T12:07:36.342Z,26.52
2023-09-06T12:10:08.248Z,26.55
2023-09-06T12:12:44.550Z,26.56
2023-09-06T12:15:21.265Z,26.61
2023-09-06T12:17:51.980Z,26.61
2023-09-06T12:20:29.126Z,26.60
2023-09-06T12:23:02.097Z,26.57
2023-09-06T12:25:32.622Z,26.57
2023-09-06T12:28:02.961Z,26.59
2023-09-06T12:30:33.458Z,26.59
2023-09-06T12:33:04.888Z,26.62
2023-09-06T12:35:40.124Z,26.70
2023-09-06T12:38:10.612Z,26.73
2023-09-06T12:40:41.029Z,26.83
2023-09-06T12:43:11.306Z,26.98
2023-09-06T12:45:41.614Z,27.17
2023-09-06T12:48:12.004Z,27.34
2023-09-06T12:50:45.105Z,27.49
2023-09-06T12:53:15.573Z,27.69
2023-09-06T12:55:46.195Z,27.80
2023-09-06T12:58:16.870Z,27.93
2023-09-06T13:00:47.399Z,28.02
2023-09-06T13:03:18.657Z,28.06
2023-09-06T13:05:51.835Z,28.06
2023-09-06T13:08:22.321Z,28.05
2023-09-06T13:10:52.727Z,28.02
2023-09-06T13:13:23.026Z,28.01
2023-09-06T13:15:53.395Z,28.07
2023-09-06T13:18:23.837Z,28.08
2023-09-06T13:21:01.504Z,28.11
2023-09-06T13:23:32.019Z,28.18
2023-09-06T13:26:03.036Z,28.21
2023-09-06T13:28:35.173Z,28.22
2023-09-06T13:31:07.369Z,28.22
2023-09-06T13:33:38.182Z,28.24
2023-09-06T13:36:11.756Z,28.28
2023-09-06T13:38:42.083Z,28.28
2023-09-06T13:41:12.431Z,28.24
2023-09-06T13:43:42.731Z,28.26
2023-09-06T13:46:13.151Z,28.21
2023-09-06T13:48:44.225Z,28.24
2023-09-06T13:51:17.428Z,28.30
2023-09-06T13:53:48.296Z,28.34
2023-09-06T13:56:18.820Z,28.36
2023-09-06T13:58:50.435Z,28.36
2023-09-06T14:01:20.803Z,28.38
2023-09-06T14:03:51.175Z,28.44
2023-09-06T14:06:24.213Z,28.51
2023-09-06T14:08:54.813Z,28.53
2023-09-06T14:11:25.145Z,28.57
2023-09-06T14:13:55.504Z,28.56
2023-09-06T14:16:25.892Z,28.60
2023-09-06T14:18:56.244Z,28.60
2023-09-06T14:21:29.119Z,28.57
2023-09-06T14:23:59.456Z,28.63
2023-09-06T14:26:29.756Z,28.67
2023-09-06T14:29:00.462Z,28.66
2023-09-06T14:31:30.966Z,28.72
2023-09-06T14:34:03.050Z,28.71
2023-09-06T14:36:36.584Z,28.71
2023-09-06T14:39:09.510Z,28.73
2023-09-06T14:41:39.971Z,28.76
2023-09-06T14:44:10.367Z,28.78
2023-09-06T14:46:41.425Z,28.81
2023-09-06T14:49:11.746Z,28.84
2023-09-06T14:51:44.668Z,28.82
2023-09-06T14:54:14.936Z,28.85
2023-09-06T14:56:45.384Z,28.86
2023-09-06T14:59:15.653Z,28.85
2023-09-06T15:01:46.052Z,28.84
2023-09-06T15:04:16.987Z,28.73
2023-09-06T15:06:59.285Z,28.74
2023-09-06T15:09:30.575Z,28.77
2023-09-06T15:12:03.131Z,28.85
2023-09-06T15:14:33.916Z,28.91
2023-09-06T15:17:04.481Z,28.98
2023-09-06T15:19:34.876Z,29.04
2023-09-06T15:22:08.286Z,29.09
2023-09-06T15:24:38.600Z,29.11
2023-09-06T15:27:09.310Z,29.09
2023-09-06T15:29:44.112Z,29.07
2023-09-06T15:32:14.871Z,29.05
2023-09-06T15:34:45.139Z,28.94
2023-09-06T15:37:18.041Z,28.92
2023-09-06T15:39:48.328Z,28.87
2023-09-06T15:42:18.729Z,28.85
2023-09-06T15:44:49.086Z,28.81
2023-09-06T15:47:19.415Z,28.73
2023-09-06T15:49:52.031Z,28.70
2023-09-06T15:52:27.049Z,28.69
2023-09-06T15:54:58.004Z,28.64
2023-09-06T15:57:28.286Z,28.56
2023-09-06T15:59:59.576Z,28.52
2023-09-06T16:02:30.239Z,28.42
2023-09-06T16:05:00.665Z,28.31
2023-09-06T16:07:33.672Z,28.28
2023-09-06T16:10:04.547Z,28.24
2023-09-06T16:12:35.511Z,28.17
2023-09-06T16:15:06.856Z,28.19
2023-09-06T16:17:37.230Z,28.12
2023-09-06T16:20:08.840Z,28.16
2023-09-06T16:22:41.827Z,28.19
2023-09-06T16:25:13.476Z,28.22
2023-09-06T16:27:44.311Z,28.25
2023-09-06T16:30:15.498Z,28.26
2023-09-06T16:32:46.074Z,28.26
2023-09-06T16:35:16.471Z,28.21
2023-09-06T16:37:52.076Z,28.21
2023-09-06T16:40:25.193Z,28.20
2023-09-06T16:42:56.210Z,28.27
2023-09-06T16:45:26.644Z,28.27
2023-09-06T16:47:56.973Z,28.31
2023-09-06T16:50:27.920Z,28.31
2023-09-06T16:53:00.912Z,28.29
2023-09-06T16:55:31.535Z,28.23
2023-09-06T16:58:02.211Z,28.18
2023-09-06T17:00:33.941Z,28.14
2023-09-06T17:03:04.301Z,28.06
2023-09-06T17:05:35.492Z,28.01
2023-09-06T17:08:09.668Z,27.94
2023-09-06T17:10:39.963Z,27.89
2023-09-06T17:13:10.338Z,27.82
2023-09-06T17:15:40.880Z,27.75
2023-09-06T17:18:11.292Z,27.68
2023-09-06T17:20:41.847Z,27.64
2023-09-06T17:23:17.566Z,27.59
2023-09-06T17:25:50.823Z,27.58
2023-09-06T17:28:21.329Z,27.56
2023-09-06T17:30:52.858Z,27.53
2023-09-06T17:33:25.878Z,27.51
2023-09-06T17:35:57.014Z,27.48
2023-09-06T17:38:30.101Z,27.45
2023-09-06T17:41:00.534Z,27.41
2023-09-06T17:43:31.634Z,27.37
2023-09-06T17:46:04.520Z,27.33
2023-09-06T17:48:35.305Z,27.26
2023-09-06T17:51:10.320Z,27.23
2023-09-06T17:53:44.505Z,27.19
2023-09-06T17:56:17.756Z,27.12
2023-09-06T17:58:50.906Z,27.07
2023-09-06T18:01:21.893Z,27.06
2023-09-06T18:03:59.598Z,27.02
2023-09-06T18:06:32.054Z,26.97
2023-09-06T18:09:09.150Z,26.90
2023-09-06T18:11:40.181Z,26.83
2023-09-06T18:14:11.082Z,26.78
2023-09-06T18:16:43.768Z,26.71
2023-09-06T18:19:14.180Z,26.63
2023-09-06T18:21:44.799Z,26.54
2023-09-06T18:24:17.838Z,26.48
2023-09-06T18:26:58.082Z,26.42
2023-09-06T18:29:38.107Z,26.34
2023-09-06T18:32:09.812Z,26.26
2023-09-06T18:34:40.119Z,26.17
2023-09-06T18:37:10.723Z,26.13
2023-09-06T18:39:43.626Z,26.04
2023-09-06T18:42:13.871Z,25.98
2023-09-06T18:44:45.196Z,25.91
2023-09-06T18:47:15.483Z,25.83
2023-09-06T18:49:45.822Z,25.74
2023-09-06T18:52:16.114Z,25.69
2023-09-06T18:54:49.277Z,25.60
2023-09-06T18:57:19.573Z,25.51
2023-09-06T18:59:49.911Z,25.43
2023-09-06T19:02:22.874Z,25.37
2023-09-06T19:04:54.566Z,25.29
2023-09-06T19:07:24.990Z,25.21
2023-09-06T19:09:59.558Z,25.12
2023-09-06T19:12:30.011Z,25.04
2023-09-06T19:15:00.327Z,24.99
2023-09-06T19:17:31.669Z,24.94
2023-09-06T19:20:02.281Z,24.88
2023-09-06T19:22:32.714Z,24.82
2023-09-06T19:25:09.194Z,24.76
2023-09-06T19:27:40.280Z,24.71
2023-09-06T19:30:13.278Z,24.67
2023-09-06T19:32:43.928Z,24.62
2023-09-06T19:35:15.305Z,24.59
2023-09-06T19:37:45.897Z,24.53
2023-09-06T19:40:18.901Z,24.50
2023-09-06T19:42:52.938Z,24.46
2023-09-06T19:45:23.990Z,24.42
2023-09-06T19:47:54.368Z,24.39
2023-09-06T19:50:24.892Z,24.35
2023-09-06T19:52:55.239Z,24.32
2023-09-06T19:55:28.111Z,24.29
2023-09-06T19:57:58.432Z,24.26
2023-09-06T20:00:28.751Z,24.20
2023-09-06T20:02:59.379Z,24.18
2023-09-06T20:05:29.977Z,24.13
2023-09-06T20:08:00.411Z,24.07
2023-09-06T20:10:33.930Z,24.03
2023-09-06T20:13:04.190Z,23.99
2023-09-06T20:15:41.314Z,23.93
2023-09-06T20:18:12.045Z,23.90
2023-09-06T20:20:44.695Z,23.88
2023-09-06T20:23:15.266Z,23.82
2023-09-06T20:25:48.279Z,23.75
2023-09-06T20:28:18.542Z,23.69
2023-09-06T20:30:50.266Z,23.64
2023-09-06T20:33:22.969Z,23.58
2023-09-06T20:35:55.252Z,23.48
2023-09-06T20:38:25.558Z,23.40
2023-09-06T20:41:05.094Z,23.34
2023-09-06T20:43:37.565Z,23.28
2023-09-06T20:46:07.960Z,23.23
2023-09-06T20:48:41.664Z,23.15
2023-09-06T20:51:15.028Z,23.08
2023-09-06T20:53:45.555Z,23.04
2023-09-06T20:56:18.442Z,23.00
2023-09-06T20:58:48.827Z,22.98
2023-09-06T21:01:22.722Z,22.94
2023-09-06T21:03:53.276Z,22.86
2023-09-06T21:06:23.685Z,22.82
2023-09-06T21:08:54.660Z,22.77
2023-09-06T21:11:27.674Z,22.72
2023-09-06T21:13:57.968Z,22.70
2023-09-06T21:16:28.307Z,22.65
2023-09-06T21:18:58.655Z,22.61
2023-09-06T21:21:28.967Z,22.52
2023-09-06T21:23:59.276Z,22.50
2023-09-06T21:26:32.335Z,22.45
2023-09-06T21:29:09.158Z,22.43
2023-09-06T21:31:45.184Z,22.39
2023-09-06T21:34:15.683Z,22.32
2023-09-06T21:36:46.161Z,22.30
2023-09-06T21:39:16.551Z,22.27
2023-09-06T21:41:49.454Z,22.26
2023-09-06T21:44:19.703Z,22.26
2023-09-06T21:46:50.044Z,22.26
2023-09-06T21:49:20.290Z,22.26
2023-09-06T21:51:50.540Z,22.23
2023-09-06T21:54:20.785Z,22.21
2023-09-06T21:56:53.704Z,22.18
2023-09-06T21:59:23.990Z,22.17
2023-09-06T22:01:54.339Z,22.15
2023-09-06T22:04:24.853Z,22.11
2023-09-06T22:06:55.309Z,22.07
2023-09-06T22:09:26.035Z,22.03
2023-09-06T22:11:59.092Z,22.01
2023-09-06T22:14:29.350Z,21.98
2023-09-06T22:17:00.078Z,21.97
2023-09-06T22:19:31.403Z,21.95
2023-09-06T22:22:01.699Z,21.91
2023-09-06T22:24:31.959Z,21.90
2023-09-06T22:27:06.030Z,21.83
2023-09-06T22:29:36.308Z,21.79
2023-09-06T22:32:07.169Z,21.77
2023-09-06T22:34:37.816Z,21.78
2023-09-06T22:37:08.646Z,21.79
2023-09-06T22:39:38.956Z,21.77
2023-09-06T22:42:12.419Z,21.74
2023-09-06T22:44:43.348Z,21.73
2023-09-06T22:47:14.057Z,21.69
2023-09-06T22:49:45.155Z,21.66
2023-09-06T22:52:15.547Z,21.62
2023-09-06T22:54:45.940Z,21.59
2023-09-06T22:57:18.890Z,21.55
2023-09-06T22:59:49.173Z,21.54
2023-09-06T23:02:19.459Z,21.53
2023-09-06T23:04:52.143Z,21.47
2023-09-06T23:07:22.594Z,21.46
2023-09-06T23:09:53.017Z,21.37
2023-09-06T23:12:28.547Z,21.33
2023-09-06T23:15:00.960Z,21.32
2023-09-06T23:17:38.423Z,21.31
2023-09-06T23:20:18.249Z,21.27
2023-09-06T23:22:51.588Z,21.22
2023-09-06T23:25:23.236Z,21.23
2023-09-06T23:27:56.950Z,21.16
2023-09-06T23:30:31.266Z,21.18
2023-09-06T23:33:06.365Z,21.17
2023-09-06T23:35:36.364Z,21.07
2023-09-06T23:38:08.721Z,21.13
2023-09-06T23:40:39.011Z,21.14
2023-09-06T23:43:12.136Z,21.12
2023-09-06T23:45:49.106Z,21.13
2023-09-06T23:48:19.714Z,21.14
2023-09-06T23:50:51.304Z,21.16
2023-09-06T23:53:23.254Z,21.12
2023-09-06T23:55:53.512Z,21.13
2023-09-06T23:58:26.591Z,21.13
